Time;durP1;ratioP1;P1;durP2;ratioP2;P2;SDS_P1;SDS_P2;PMS_P1;PMS_P2;Temp;Humidity;BMP_temperature;BMP_pressure;BME280_temperature;BME280_humidity;BME280_pressure;Samples;Min_cycle;Max_cycle;Signal;HPM_P1;HPM_P2
2022/08/08 00:02:39;;;;;;;6.63;4.43;;;;;;;;;;4961873;28;20059;-76
2022/08/08 00:05:35;;;;;;;7.65;4.78;;;;;;;;;;4962232;28;20805;-76
2022/08/08 00:08:29;;;;;;;7.95;5.22;;;;;;;;;;4960711;28;20047;-76
2022/08/08 00:11:06;;;;;;;8.98;5.05;;;;;;;;;;4962795;28;20059;-76
2022/08/08 00:13:58;;;;;;;6.40;4.82;;;;;;;;;;4963189;28;20066;-76
2022/08/08 00:16:54;;;;;;;8.95;5.63;;;;;;;;;;4967689;28;20497;-77
2022/08/08 00:19:39;;;;;;;6.88;4.30;;;;;;;;;;4964488;28;20130;-77
2022/08/08 00:22:16;;;;;;;7.53;4.57;;;;;;;;;;4961484;28;20904;-76
2022/08/08 00:24:49;;;;;;;7.75;5.55;;;;;;;;;;4967031;28;20154;-76
2022/08/08 00:27:18;;;;;;;7.57;5.45;;;;;;;;;;4972204;28;20496;-76
2022/08/08 00:29:54;;;;;;;9.18;5.55;;;;;;;;;;5006510;28;20062;-76
2022/08/08 00:32:50;;;;;;;10.38;5.75;;;;;;;;;;5005895;28;20093;-77
2022/08/08 00:35:27;;;;;;;9.27;5.45;;;;;;;;;;4990409;28;20077;-77
2022/08/08 00:37:54;;;;;;;8.75;5.68;;;;;;;;;;4999621;28;20062;-77
2022/08/08 00:40:28;;;;;;;9.38;5.38;;;;;;;;;;5004349;28;20054;-77
2022/08/08 00:43:15;;;;;;;10.27;5.90;;;;;;;;;;5008780;28;20065;-77
2022/08/08 00:46:04;;;;;;;7.78;4.95;;;;;;;;;;5006928;28;20047;-77
2022/08/08 00:48:55;;;;;;;9.00;5.55;;;;;;;;;;5009724;28;20054;-77
2022/08/08 00:51:50;;;;;;;8.35;4.75;;;;;;;;;;5008467;28;20735;-77
2022/08/08 00:54:30;;;;;;;7.97;4.55;;;;;;;;;;5004599;28;20154;-77
2022/08/08 00:57:22;;;;;;;6.78;5.07;;;;;;;;;;5008160;28;20129;-77
2022/08/08 01:00:07;;;;;;;6.53;4.20;;;;;;;;;;5016857;28;20090;-77
2022/08/08 01:02:52;;;;;;;10.70;4.90;;;;;;;;;;5008469;28;20058;-77
2022/08/08 01:06:03;;;;;;;8.63;5.05;;;;;;;;;;5005188;28;20517;-77
2022/08/08 01:08:30;;;;;;;7.80;4.97;;;;;;;;;;5004016;28;20065;-77
2022/08/08 01:11:16;;;;;;;8.18;5.00;;;;;;;;;;5006013;28;20073;-76
2022/08/08 01:13:46;;;;;;;8.95;4.90;;;;;;;;;;5008401;28;20062;-77
2022/08/08 01:16:24;;;;;;;7.78;5.32;;;;;;;;;;5003149;28;20061;-77
2022/08/08 01:19:13;;;;;;;8.50;5.40;;;;;;;;;;5007695;28;20058;-77
2022/08/08 01:22:09;;;;;;;9.32;5.07;;;;;;;;;;5003835;28;20050;-77
2022/08/08 01:25:07;;;;;;;7.38;4.75;;;;;;;;;;4999196;28;20061;-77
2022/08/08 01:27:59;;;;;;;8.93;5.10;;;;;;;;;;5002227;28;20062;-77
2022/08/08 01:30:46;;;;;;;6.82;4.00;;;;;;;;;;5006469;28;20058;-77
2022/08/08 01:33:19;;;;;;;7.85;4.97;;;;;;;;;;5006695;28;20066;-77
2022/08/08 01:35:56;;;;;;;5.32;3.97;;;;;;;;;;5003959;28;20058;-77
2022/08/08 01:38:27;;;;;;;;;;;;;;;;;;5008298;28;20910;-77
2022/08/08 01:41:06;;;;;;;7.57;4.43;;;;;;;;;;5002075;28;44434;-77
2022/08/08 01:43:48;;;;;;;12.23;5.15;;;;;;;;;;5001951;28;20066;-77
2022/08/08 01:46:26;;;;;;;8.13;4.78;;;;;;;;;;5002938;28;20062;-77
2022/08/08 01:48:53;;;;;;;8.05;4.38;;;;;;;;;;4998733;28;20047;-77
2022/08/08 01:51:34;;;;;;;7.32;5.20;;;;;;;;;;5005630;28;20054;-77
2022/08/08 01:54:42;;;;;;;7.05;4.32;;;;;;;;;;5000935;28;20740;-77
2022/08/08 01:57:33;;;;;;;6.10;3.63;;;;;;;;;;5014691;28;20089;-76
2022/08/08 02:00:32;;;;;;;6.53;4.20;;;;;;;;;;5004149;28;20050;-77
2022/08/08 02:03:05;;;;;;;6.43;4.20;;;;;;;;;;5010261;28;20058;-77
2022/08/08 02:05:45;;;;;;;6.35;4.05;;;;;;;;;;5010346;28;20431;-77
2022/08/08 02:08:37;;;;;;;8.85;4.43;;;;;;;;;;5010032;28;20070;-77
2022/08/08 02:11:17;;;;;;;6.28;4.30;;;;;;;;;;5007819;28;20051;-77
2022/08/08 02:13:49;;;;;;;6.70;4.60;;;;;;;;;;5006808;28;20130;-77
2022/08/08 02:16:40;;;;;;;8.90;4.40;;;;;;;;;;5009519;28;20046;-77
2022/08/08 02:19:16;;;;;;;9.05;4.90;;;;;;;;;;5009514;28;20042;-77
2022/08/08 02:22:30;;;;;;;10.95;5.78;;;;;;;;;;5008342;28;20060;-77
2022/08/08 02:25:01;;;;;;;9.02;5.38;;;;;;;;;;5006803;28;20074;-77
2022/08/08 02:27:43;;;;;;;8.50;5.00;;;;;;;;;;5004912;28;20090;-77
2022/08/08 02:30:17;;;;;;;7.82;4.60;;;;;;;;;;5010341;28;20062;-77
2022/08/08 02:33:17;;;;;;;7.93;4.97;;;;;;;;;;5005481;28;20058;-77
2022/08/08 02:35:53;;;;;;;6.50;4.57;;;;;;;;;;5002394;28;20081;-77
2022/08/08 02:38:31;;;;;;;8.02;4.88;;;;;;;;;;5011395;28;20141;-76
2022/08/08 02:41:01;;;;;;;7.75;4.93;;;;;;;;;;5012579;28;20050;-77
2022/08/08 02:43:57;;;;;;;7.93;5.40;;;;;;;;;;5018293;28;20077;-76
2022/08/08 02:46:56;;;;;;;8.20;4.85;;;;;;;;;;5011179;28;20527;-77
2022/08/08 02:49:56;;;;;;;7.75;5.13;;;;;;;;;;5009636;28;20045;-77
2022/08/08 02:52:23;;;;;;;7.85;5.22;;;;;;;;;;4992324;28;20152;-77
2022/08/08 02:55:23;;;;;;;9.52;5.00;;;;;;;;;;5009721;28;20089;-77
2022/08/08 02:58:08;;;;;;;7.55;4.78;;;;;;;;;;5017424;28;20049;-77
2022/08/08 03:00:50;;;;;;;7.13;4.67;;;;;;;;;;5015141;28;20117;-77
2022/08/08 03:03:38;;;;;;;6.43;4.57;;;;;;;;;;5009850;28;20312;-78
2022/08/08 03:06:37;;;;;;;5.55;4.00;;;;;;;;;;5016464;28;20039;-77
2022/08/08 03:09:06;;;;;;;5.72;3.70;;;;;;;;;;5013870;28;20069;-77
2022/08/08 03:11:52;;;;;;;7.25;4.15;;;;;;;;;;5015948;28;20050;-77
2022/08/08 03:14:31;;;;;;;5.28;3.88;;;;;;;;;;5015524;28;20043;-77
2022/08/08 03:17:29;;;;;;;8.35;3.88;;;;;;;;;;5020028;28;20050;-77
2022/08/08 03:20:05;;;;;;;7.13;3.83;;;;;;;;;;5012088;28;20852;-78
2022/08/08 03:22:47;;;;;;;7.57;4.22;;;;;;;;;;5015940;28;20121;-77
2022/08/08 03:25:26;;;;;;;7.32;4.30;;;;;;;;;;5014414;28;20081;-78
2022/08/08 03:28:04;;;;;;;7.35;4.45;;;;;;;;;;5012193;28;20061;-79
2022/08/08 03:30:34;;;;;;;6.38;4.53;;;;;;;;;;5014301;28;20050;-79
2022/08/08 03:33:17;;;;;;;8.65;4.53;;;;;;;;;;5017460;28;20046;-79
2022/08/08 03:36:05;;;;;;;8.38;5.03;;;;;;;;;;5012422;28;20046;-79
2022/08/08 03:38:37;;;;;;;6.85;4.50;;;;;;;;;;5032124;28;20142;-79
2022/08/08 03:41:33;;;;;;;7.47;5.18;;;;;;;;;;5018827;28;20054;-78
2022/08/08 03:44:20;;;;;;;9.02;5.07;;;;;;;;;;5013368;28;20046;-78
2022/08/08 03:46:51;;;;;;;6.50;4.30;;;;;;;;;;5016524;28;20050;-78
2022/08/08 03:49:21;;;;;;;8.98;4.90;;;;;;;;;;5016125;28;20559;-79
2022/08/08 03:52:09;;;;;;;7.57;4.93;;;;;;;;;;5024193;28;20051;-78
2022/08/08 03:54:41;;;;;;;6.72;4.60;;;;;;;;;;5023000;28;20069;-77
2022/08/08 03:57:29;;;;;;;7.70;4.45;;;;;;;;;;5018249;28;20038;-78
2022/08/08 04:00:16;;;;;;;8.80;4.47;;;;;;;;;;5022063;28;20035;-77
2022/08/08 04:02:56;;;;;;;7.40;4.18;;;;;;;;;;5026391;28;20050;-78
2022/08/08 04:05:24;;;;;;;5.13;3.88;;;;;;;;;;5022809;28;20050;-78
2022/08/08 04:07:55;;;;;;;7.05;4.07;;;;;;;;;;5023155;28;20047;-78
2022/08/08 04:10:24;;;;;;;6.22;3.95;;;;;;;;;;5025048;28;20035;-78
2022/08/08 04:12:58;;;;;;;6.43;4.28;;;;;;;;;;5020297;28;20050;-78
2022/08/08 04:15:26;;;;;;;5.50;4.03;;;;;;;;;;5020740;28;20630;-77
2022/08/08 04:18:04;;;;;;;8.93;5.05;;;;;;;;;;5019890;28;20047;-78
2022/08/08 04:20:32;;;;;;;7.55;4.93;;;;;;;;;;5020712;28;20041;-77
2022/08/08 04:23:03;;;;;;;9.10;5.65;;;;;;;;;;5021591;28;20054;-77
2022/08/08 04:25:33;;;;;;;9.88;5.53;;;;;;;;;;5017899;28;20047;-78
2022/08/08 04:28:06;;;;;;;9.35;5.68;;;;;;;;;;5024524;28;20062;-78
2022/08/08 04:30:53;;;;;;;8.35;5.47;;;;;;;;;;5019782;28;20038;-77
2022/08/08 04:33:23;;;;;;;11.60;6.00;;;;;;;;;;5024590;28;20054;-78
2022/08/08 04:35:53;;;;;;;9.68;5.88;;;;;;;;;;5025740;28;20081;-77
2022/08/08 04:38:22;;;;;;;8.52;5.63;;;;;;;;;;5028711;28;20062;-78
2022/08/08 04:40:51;;;;;;;10.48;5.90;;;;;;;;;;5028536;28;20055;-78
2022/08/08 04:43:22;;;;;;;10.40;6.38;;;;;;;;;;5026843;28;20093;-78
2022/08/08 04:46:09;;;;;;;12.48;5.88;;;;;;;;;;5026808;28;20035;-78
2022/08/08 04:48:36;;;;;;;12.30;5.50;;;;;;;;;;5025208;28;20043;-78
2022/08/08 04:51:04;;;;;;;7.95;5.45;;;;;;;;;;5025397;28;20114;-78
2022/08/08 04:53:34;;;;;;;9.13;5.82;;;;;;;;;;5023425;28;20046;-78
2022/08/08 04:56:21;;;;;;;9.30;6.03;;;;;;;;;;5017039;28;20053;-77
2022/08/08 04:58:49;;;;;;;8.73;6.13;;;;;;;;;;5023305;28;20576;-78
2022/08/08 05:01:17;;;;;;;11.40;6.22;;;;;;;;;;5019718;28;20775;-78
2022/08/08 05:03:46;;;;;;;11.80;6.40;;;;;;;;;;5018191;28;20057;-78
2022/08/08 05:06:33;;;;;;;10.07;6.90;;;;;;;;;;5017392;28;20051;-78
2022/08/08 05:09:05;;;;;;;13.13;6.45;;;;;;;;;;5024232;28;20054;-78
2022/08/08 05:11:32;;;;;;;11.23;6.30;;;;;;;;;;5019050;28;20062;-78
2022/08/08 05:14:10;;;;;;;;;;;;;;;;;;5023928;28;20067;-78
2022/08/08 05:16:38;;;;;;;9.25;6.25;;;;;;;;;;5024533;28;42640;-78
2022/08/08 05:19:23;;;;;;;9.20;6.00;;;;;;;;;;5022223;28;20050;-78
2022/08/08 05:22:10;;;;;;;9.40;6.32;;;;;;;;;;5024059;28;20066;-78
2022/08/08 05:24:38;;;;;;;10.15;6.30;;;;;;;;;;5022793;28;20046;-77
2022/08/08 05:27:09;;;;;;;10.88;7.25;;;;;;;;;;5043273;28;20037;-78
2022/08/08 05:29:36;;;;;;;11.85;6.57;;;;;;;;;;5037840;28;20172;-77
2022/08/08 05:32:08;;;;;;;9.85;5.80;;;;;;;;;;5040745;28;20069;-78
2022/08/08 05:34:35;;;;;;;11.60;6.22;;;;;;;;;;5035561;28;20054;-78
2022/08/08 05:37:03;;;;;;;10.60;6.13;;;;;;;;;;5036981;28;20046;-78
2022/08/08 05:39:53;;;;;;;13.70;7.10;;;;;;;;;;5029994;28;20050;-78
2022/08/08 05:42:32;;;;;;;13.23;6.70;;;;;;;;;;5023257;28;20078;-78
2022/08/08 05:45:02;;;;;;;12.25;7.43;;;;;;;;;;5015035;28;20091;-78
2022/08/08 05:47:50;;;;;;;11.85;6.03;;;;;;;;;;5022709;28;20058;-77
2022/08/08 05:50:29;;;;;;;16.80;7.70;;;;;;;;;;5021283;28;20141;-77
2022/08/08 05:53:00;;;;;;;16.02;8.07;;;;;;;;;;5020009;28;20054;-76
2022/08/08 05:55:48;;;;;;;13.63;7.88;;;;;;;;;;5023457;28;20050;-77
2022/08/08 05:58:39;;;;;;;15.13;8.63;;;;;;;;;;5023526;28;20054;-77
2022/08/08 06:01:29;;;;;;;;;;;;;;;;;;5026429;28;20061;-78
2022/08/08 06:04:18;;;;;;;15.27;8.27;;;;;;;;;;5023882;28;19930;-77
2022/08/08 06:06:49;;;;;;;;;;;;;;;;;;5021530;28;20059;-78
2022/08/08 06:09:23;;;;;;;15.30;7.65;;;;;;;;;;5017507;28;43917;-78
2022/08/08 06:12:10;;;;;;;15.93;8.20;;;;;;;;;;5015200;28;20217;-77
2022/08/08 06:14:44;;;;;;;9.60;6.35;;;;;;;;;;5023897;28;20058;-78
2022/08/08 06:17:16;;;;;;;10.57;6.00;;;;;;;;;;5025106;28;20054;-78
2022/08/08 06:20:08;;;;;;;14.50;6.63;;;;;;;;;;5018589;28;20041;-77
2022/08/08 06:22:39;;;;;;;11.60;6.18;;;;;;;;;;5024781;28;20061;-77
2022/08/08 06:25:08;;;;;;;15.57;6.47;;;;;;;;;;5019662;28;20085;-77
2022/08/08 06:27:41;;;;;;;8.23;4.85;;;;;;;;;;5017175;28;20096;-77
2022/08/08 06:30:20;;;;;;;10.15;4.53;;;;;;;;;;5016583;28;20579;-77
2022/08/08 06:32:56;;;;;;;7.43;3.80;;;;;;;;;;5022491;28;20528;-78
2022/08/08 06:35:23;;;;;;;8.27;3.92;;;;;;;;;;5019316;28;20050;-77
2022/08/08 06:38:11;;;;;;;11.23;3.40;;;;;;;;;;5020080;28;20575;-76
2022/08/08 06:40:41;;;;;;;5.78;2.90;;;;;;;;;;5019857;28;20166;-76
2022/08/08 06:43:21;;;;;;;8.48;3.17;;;;;;;;;;5018030;28;21371;-76
2022/08/08 06:45:59;;;;;;;6.50;2.78;;;;;;;;;;5015055;28;20050;-76
2022/08/08 06:48:27;;;;;;;4.68;2.42;;;;;;;;;;5017766;28;20137;-76
2022/08/08 06:50:54;;;;;;;5.95;2.83;;;;;;;;;;5010930;28;20056;-76
2022/08/08 06:53:22;;;;;;;8.52;2.90;;;;;;;;;;5031427;28;20504;-77
2022/08/08 06:55:50;;;;;;;7.47;2.92;;;;;;;;;;5015419;28;20101;-76
2022/08/08 06:58:29;;;;;;;10.77;3.22;;;;;;;;;;5015852;28;20050;-77
2022/08/08 07:01:00;;;;;;;9.75;2.97;;;;;;;;;;5023910;28;20106;-77
2022/08/08 07:03:47;;;;;;;6.30;2.75;;;;;;;;;;5021529;28;20054;-77
2022/08/08 07:06:36;;;;;;;5.80;2.47;;;;;;;;;;5019715;28;20049;-77
2022/08/08 07:09:12;;;;;;;8.98;2.95;;;;;;;;;;5025927;28;20061;-77
2022/08/08 07:11:47;;;;;;;5.50;2.78;;;;;;;;;;5017134;28;20050;-77
2022/08/08 07:14:18;;;;;;;8.30;3.33;;;;;;;;;;5015746;28;20054;-77
2022/08/08 07:16:48;;;;;;;8.98;3.47;;;;;;;;;;5018025;28;20861;-78
2022/08/08 07:19:23;;;;;;;5.00;3.05;;;;;;;;;;5018871;28;20079;-77
2022/08/08 07:21:59;;;;;;;7.75;3.40;;;;;;;;;;5022282;28;20848;-77
2022/08/08 07:24:37;;;;;;;9.05;3.35;;;;;;;;;;5021491;28;20058;-77
2022/08/08 07:27:07;;;;;;;8.02;3.30;;;;;;;;;;5022888;28;20074;-77
2022/08/08 07:29:37;;;;;;;8.77;2.92;;;;;;;;;;5018166;28;20559;-77
2022/08/08 07:32:26;;;;;;;10.75;2.92;;;;;;;;;;5019243;28;20050;-77
2022/08/08 07:34:55;;;;;;;12.23;2.80;;;;;;;;;;5020303;28;20165;-77
2022/08/08 07:37:27;;;;;;;6.28;2.88;;;;;;;;;;5017276;28;20066;-76
2022/08/08 07:40:16;;;;;;;7.28;2.78;;;;;;;;;;5018625;28;20111;-75
2022/08/08 07:42:56;;;;;;;8.70;3.03;;;;;;;;;;5019672;28;20136;-78
2022/08/08 07:45:25;;;;;;;9.32;2.80;;;;;;;;;;5020640;28;20411;-76
2022/08/08 07:48:12;;;;;;;10.57;2.47;;;;;;;;;;5018189;28;20067;-79
2022/08/08 07:50:40;;;;;;;10.40;2.33;;;;;;;;;;5018231;28;20562;-78
2022/08/08 07:53:20;;;;;;;13.02;2.65;;;;;;;;;;5021214;28;20129;-78
2022/08/08 07:56:08;;;;;;;5.75;2.20;;;;;;;;;;5022059;28;20050;-78
2022/08/08 07:58:41;;;;;;;6.05;2.33;;;;;;;;;;5020094;28;20509;-78
2022/08/08 08:01:11;;;;;;;9.27;2.20;;;;;;;;;;5017492;28;20077;-79
2022/08/08 08:03:51;;;;;;;7.43;2.80;;;;;;;;;;5016597;28;20050;-78
2022/08/08 08:06:25;;;;;;;8.57;2.67;;;;;;;;;;5014216;28;20124;-76
2022/08/08 08:09:06;;;;;;;6.70;2.55;;;;;;;;;;5015517;28;20141;-77
2022/08/08 08:11:35;;;;;;;7.32;2.28;;;;;;;;;;5013259;28;20051;-78
2022/08/08 08:14:21;;;;;;;10.00;2.22;;;;;;;;;;5013095;28;20109;-77
2022/08/08 08:16:48;;;;;;;7.68;2.33;;;;;;;;;;5013299;28;20047;-76
2022/08/08 08:19:17;;;;;;;6.15;2.10;;;;;;;;;;5015337;28;20058;-76
2022/08/08 08:21:47;;;;;;;5.55;2.13;;;;;;;;;;5016957;28;20050;-76
2022/08/08 08:24:25;;;;;;;5.10;1.98;;;;;;;;;;5018908;28;20054;-76
2022/08/08 08:26:58;;;;;;;8.30;2.20;;;;;;;;;;5016243;28;20058;-76
2022/08/08 08:29:29;;;;;;;6.72;2.17;;;;;;;;;;5020552;28;20157;-77
2022/08/08 08:31:57;;;;;;;6.22;2.20;;;;;;;;;;5019987;28;20054;-76
2022/08/08 08:34:29;;;;;;;5.75;2.10;;;;;;;;;;5023146;28;20832;-76
2022/08/08 08:36:59;;;;;;;4.10;1.60;;;;;;;;;;5021351;28;20050;-76
2022/08/08 08:39:34;;;;;;;5.05;1.73;;;;;;;;;;5015736;28;20054;-77
2022/08/08 08:42:23;;;;;;;15.25;2.55;;;;;;;;;;5018063;28;20049;-77
2022/08/08 08:45:04;;;;;;;5.88;1.48;;;;;;;;;;5020829;28;20053;-76
2022/08/08 08:47:50;;;;;;;7.30;1.85;;;;;;;;;;5025850;28;20050;-76
2022/08/08 08:50:19;;;;;;;6.32;1.70;;;;;;;;;;5022309;28;20826;-76
2022/08/08 08:53:01;;;;;;;4.47;1.80;;;;;;;;;;5025590;28;20057;-77
2022/08/08 08:55:49;;;;;;;6.18;1.63;;;;;;;;;;5020843;28;20049;-77
2022/08/08 08:58:31;;;;;;;8.82;2.15;;;;;;;;;;5022081;28;20068;-77
2022/08/08 09:01:03;;;;;;;8.82;1.40;;;;;;;;;;5016542;28;20058;-78
2022/08/08 09:03:36;;;;;;;5.20;2.00;;;;;;;;;;5018486;28;20215;-76
2022/08/08 09:06:20;;;;;;;7.35;1.70;;;;;;;;;;5020545;28;20080;-77
2022/08/08 09:09:01;;;;;;;5.75;1.60;;;;;;;;;;5024125;28;20496;-77
2022/08/08 09:11:32;;;;;;;6.38;1.70;;;;;;;;;;5020690;28;20057;-77
2022/08/08 09:14:00;;;;;;;4.90;1.98;;;;;;;;;;5019973;28;20054;-77
2022/08/08 09:16:29;;;;;;;8.02;1.60;;;;;;;;;;5025548;28;20045;-76
2022/08/08 09:18:59;;;;;;;4.53;1.48;;;;;;;;;;5014738;28;20058;-77
2022/08/08 09:21:28;;;;;;;3.65;1.30;;;;;;;;;;5021101;28;20062;-78
2022/08/08 09:24:15;;;;;;;3.13;1.40;;;;;;;;;;5019357;28;20050;-78
2022/08/08 09:26:51;;;;;;;4.28;1.80;;;;;;;;;;5018356;28;20049;-78
2022/08/08 09:29:24;;;;;;;3.65;1.70;;;;;;;;;;5022953;28;20054;-78
2022/08/08 09:31:55;;;;;;;6.72;1.70;;;;;;;;;;5020457;28;20536;-77
2022/08/08 09:34:24;;;;;;;7.00;1.70;;;;;;;;;;5016955;28;20093;-77
2022/08/08 09:37:09;;;;;;;4.80;1.50;;;;;;;;;;5020305;28;20055;-78
2022/08/08 09:40:07;;;;;;;2.90;1.00;;;;;;;;;;5020638;28;20101;-79
2022/08/08 09:42:42;;;;;;;3.53;1.33;;;;;;;;;;5024681;28;20139;-78
2022/08/08 09:45:18;;;;;;;2.70;1.27;;;;;;;;;;5016949;28;20085;-77
2022/08/08 09:48:06;;;;;;;3.38;1.17;;;;;;;;;;5018963;28;20818;-78
2022/08/08 09:50:50;;;;;;;2.47;1.00;;;;;;;;;;5017948;28;20047;-78
2022/08/08 09:53:22;;;;;;;1.20;0.80;;;;;;;;;;5020936;28;20049;-78
2022/08/08 09:56:11;;;;;;;2.10;0.95;;;;;;;;;;5021542;28;20061;-79
2022/08/08 09:59:00;;;;;;;1.20;0.73;;;;;;;;;;5021004;28;20054;-77
2022/08/08 10:01:48;;;;;;;2.95;1.10;;;;;;;;;;5021421;28;20055;-76
2022/08/08 10:04:30;;;;;;;7.25;1.20;;;;;;;;;;5019170;28;20038;-78
2022/08/08 10:07:12;;;;;;;6.25;1.20;;;;;;;;;;5021835;28;20570;-78
2022/08/08 10:09:43;;;;;;;5.50;1.42;;;;;;;;;;5021655;28;20054;-77
2022/08/08 10:12:31;;;;;;;6.25;1.77;;;;;;;;;;5024111;28;20058;-77
2022/08/08 10:15:18;;;;;;;5.13;2.08;;;;;;;;;;5017673;28;20050;-79
2022/08/08 10:17:47;;;;;;;6.45;1.70;;;;;;;;;;5022128;28;20081;-77
2022/08/08 10:20:39;;;;;;;5.93;1.70;;;;;;;;;;5025755;28;20180;-77
2022/08/08 10:23:38;;;;;;;7.72;1.60;;;;;;;;;;5022707;28;20050;-77
2022/08/08 10:26:15;;;;;;;7.93;1.60;;;;;;;;;;5020314;28;20152;-78
2022/08/08 10:29:01;;;;;;;6.85;1.70;;;;;;;;;;5030674;28;20131;-77
2022/08/08 10:34:17;;;;;;;3.50;1.73;;;;;;;;;;5024074;28;20146;-75
2022/08/08 10:36:48;;;;;;;6.13;1.77;;;;;;;;;;5030604;28;20044;-75
2022/08/08 10:39:23;;;;;;;6.47;1.67;;;;;;;;;;5025075;28;20132;-76
2022/08/08 10:42:11;;;;;;;6.75;1.77;;;;;;;;;;5030630;28;20084;-75
2022/08/08 10:44:59;;;;;;;5.65;1.55;;;;;;;;;;5019031;28;20049;-76
2022/08/08 10:47:27;;;;;;;4.65;1.70;;;;;;;;;;5026367;28;20066;-76
2022/08/08 10:50:10;;;;;;;;;;;;;;;;;;5025979;28;20054;-75
2022/08/08 10:52:42;;;;;;;4.25;1.42;;;;;;;;;;5019067;28;43906;-75
2022/08/08 10:55:12;;;;;;;6.25;1.73;;;;;;;;;;5021297;28;20092;-75
2022/08/08 10:57:42;;;;;;;7.45;1.52;;;;;;;;;;5031461;28;20092;-76
2022/08/08 11:00:35;;;;;;;6.50;2.00;;;;;;;;;;5031152;28;20529;-76
2022/08/08 11:03:23;;;;;;;6.85;1.73;;;;;;;;;;5027803;28;20060;-77
2022/08/08 11:06:11;;;;;;;5.43;1.70;;;;;;;;;;5021479;28;20068;-76
2022/08/08 11:08:40;;;;;;;8.02;2.22;;;;;;;;;;5030698;28;20060;-76
2022/08/08 11:11:20;;;;;;;2.42;1.42;;;;;;;;;;5024859;28;20137;-76
2022/08/08 11:14:09;;;;;;;7.10;1.65;;;;;;;;;;5019765;28;20046;-76
2022/08/08 11:16:43;;;;;;;7.32;1.58;;;;;;;;;;5022659;28;20070;-75
2022/08/08 11:19:13;;;;;;;6.53;1.42;;;;;;;;;;5019657;28;20706;-76
2022/08/08 11:21:44;;;;;;;2.58;1.48;;;;;;;;;;5040092;28;20065;-75
2022/08/08 11:24:25;;;;;;;4.13;1.50;;;;;;;;;;5025448;28;20060;-76
2022/08/08 11:26:55;;;;;;;2.00;0.70;;;;;;;;;;5030959;28;20094;-75
2022/08/08 11:29:26;;;;;;;2.45;1.15;;;;;;;;;;5026941;28;20050;-76
2022/08/08 11:32:14;;;;;;;3.15;1.00;;;;;;;;;;5028813;28;20056;-76
2022/08/08 11:34:45;;;;;;;3.65;1.60;;;;;;;;;;5020081;28;20053;-75
2022/08/08 11:37:33;;;;;;;3.95;1.02;;;;;;;;;;5025764;28;20443;-76
2022/08/08 11:40:24;;;;;;;2.88;1.10;;;;;;;;;;5044129;28;20806;-76
2022/08/08 11:42:54;;;;;;;2.97;1.30;;;;;;;;;;5021838;28;20042;-77
2022/08/08 11:45:22;;;;;;;2.50;1.10;;;;;;;;;;5023686;28;20043;-76
2022/08/08 11:47:50;;;;;;;1.50;1.10;;;;;;;;;;5022510;28;20038;-76
2022/08/08 11:50:32;;;;;;;4.13;1.50;;;;;;;;;;5027119;28;20042;-76
2022/08/08 11:53:01;;;;;;;2.70;1.20;;;;;;;;;;5027371;28;20058;-76
2022/08/08 11:55:36;;;;;;;4.20;1.40;;;;;;;;;;5025993;28;20050;-76
2022/08/08 11:58:07;;;;;;;7.63;1.60;;;;;;;;;;5028715;28;20049;-76
2022/08/08 12:00:52;;;;;;;3.70;1.30;;;;;;;;;;5020743;28;20050;-76
2022/08/08 12:03:19;;;;;;;5.53;1.52;;;;;;;;;;5021204;28;20889;-75
2022/08/08 12:05:48;;;;;;;7.53;1.42;;;;;;;;;;5026216;28;20576;-75
2022/08/08 12:08:16;;;;;;;3.95;1.20;;;;;;;;;;5027674;28;20048;-76
2022/08/08 12:10:47;;;;;;;3.15;1.30;;;;;;;;;;5026721;28;20050;-75
2022/08/08 12:13:15;;;;;;;3.90;1.30;;;;;;;;;;5027131;28;20052;-75
2022/08/08 12:15:47;;;;;;;3.70;1.25;;;;;;;;;;5027075;28;20054;-75
2022/08/08 12:18:25;;;;;;;5.60;1.52;;;;;;;;;;5029213;28;20132;-75
2022/08/08 12:20:53;;;;;;;3.63;1.30;;;;;;;;;;5031363;28;20046;-77
2022/08/08 12:23:33;;;;;;;2.30;0.93;;;;;;;;;;5032685;28;20046;-76
2022/08/08 12:26:23;;;;;;;2.08;1.08;;;;;;;;;;5024517;28;20062;-75
2022/08/08 12:29:01;;;;;;;3.70;1.10;;;;;;;;;;5023637;28;20058;-75
2022/08/08 12:31:36;;;;;;;3.70;1.10;;;;;;;;;;5024112;28;20050;-76
2022/08/08 12:34:05;;;;;;;3.40;0.90;;;;;;;;;;5017344;28;20056;-76
2022/08/08 12:36:39;;;;;;;5.22;1.08;;;;;;;;;;5022071;28;20057;-76
2022/08/08 12:39:12;;;;;;;1.60;1.00;;;;;;;;;;5021442;28;20046;-75
2022/08/08 12:41:41;;;;;;;3.17;0.98;;;;;;;;;;5022820;28;20053;-76
2022/08/08 12:44:28;;;;;;;2.35;1.00;;;;;;;;;;5025168;28;20061;-75
2022/08/08 12:46:59;;;;;;;3.78;0.98;;;;;;;;;;5024658;28;20077;-75
2022/08/08 12:49:35;;;;;;;2.78;1.05;;;;;;;;;;5021443;28;20522;-77
2022/08/08 12:52:19;;;;;;;3.15;0.98;;;;;;;;;;5022365;28;20570;-75
2022/08/08 12:55:05;;;;;;;3.85;1.00;;;;;;;;;;5024451;28;20049;-75
2022/08/08 12:57:40;;;;;;;2.30;1.17;;;;;;;;;;5026298;28;20050;-76
2022/08/08 13:00:28;;;;;;;6.15;1.20;;;;;;;;;;5021516;28;20058;-75
2022/08/08 13:03:05;;;;;;;2.63;0.93;;;;;;;;;;5019480;28;20077;-75
2022/08/08 13:05:36;;;;;;;3.83;1.35;;;;;;;;;;5022121;28;20054;-75
2022/08/08 13:08:24;;;;;;;3.45;1.00;;;;;;;;;;5023483;28;20043;-76
2022/08/08 13:11:03;;;;;;;3.08;1.05;;;;;;;;;;5024090;28;20046;-75
2022/08/08 13:13:32;;;;;;;3.63;1.13;;;;;;;;;;5027251;28;20053;-75
2022/08/08 13:16:24;;;;;;;3.47;1.33;;;;;;;;;;5024129;28;20076;-74
2022/08/08 13:18:59;;;;;;;4.72;1.60;;;;;;;;;;5023161;28;20169;-76
2022/08/08 13:21:44;;;;;;;3.92;1.00;;;;;;;;;;5026879;28;20210;-75
2022/08/08 13:24:30;;;;;;;2.90;0.93;;;;;;;;;;5017232;28;20062;-75
2022/08/08 13:27:20;;;;;;;3.83;1.10;;;;;;;;;;5022516;28;20053;-76
2022/08/08 13:29:55;;;;;;;2.88;0.82;;;;;;;;;;5022338;28;20068;-75
2022/08/08 13:32:24;;;;;;;4.03;1.08;;;;;;;;;;5015392;28;20061;-76
2022/08/08 13:34:54;;;;;;;3.85;1.00;;;;;;;;;;5027052;28;20060;-75
2022/08/08 13:37:22;;;;;;;3.20;1.20;;;;;;;;;;5021187;28;22796;-75
2022/08/08 13:40:10;;;;;;;4.05;1.23;;;;;;;;;;5022527;28;20082;-76
2022/08/08 13:42:44;;;;;;;5.57;1.45;;;;;;;;;;5020152;28;20052;-76
2022/08/08 13:45:12;;;;;;;3.47;1.13;;;;;;;;;;5022438;28;20048;-75
2022/08/08 13:47:42;;;;;;;2.63;1.10;;;;;;;;;;5025703;28;20990;-75
2022/08/08 13:50:21;;;;;;;2.85;1.48;;;;;;;;;;5029306;28;20059;-76
2022/08/08 13:53:09;;;;;;;4.45;1.10;;;;;;;;;;5030275;28;20489;-75
2022/08/08 13:56:04;;;;;;;4.43;1.08;;;;;;;;;;5023917;28;20034;-76
2022/08/08 13:58:47;;;;;;;4.20;1.40;;;;;;;;;;5029538;28;20099;-75
2022/08/08 14:01:26;;;;;;;3.55;1.00;;;;;;;;;;5030850;28;20172;-75
2022/08/08 14:04:19;;;;;;;3.15;1.30;;;;;;;;;;5026789;28;20057;-76
2022/08/08 14:06:46;;;;;;;1.70;0.90;;;;;;;;;;5030363;28;20169;-76
2022/08/08 14:09:14;;;;;;;3.75;1.17;;;;;;;;;;5022207;28;20133;-76
2022/08/08 14:11:58;;;;;;;9.60;1.10;;;;;;;;;;5031655;28;20049;-76
2022/08/08 14:14:36;;;;;;;5.28;1.25;;;;;;;;;;5028999;28;20054;-75
2022/08/08 14:17:06;;;;;;;2.00;0.93;;;;;;;;;;5030175;28;20100;-75
2022/08/08 14:19:39;;;;;;;2.72;0.90;;;;;;;;;;5019215;28;20049;-76
2022/08/08 14:22:27;;;;;;;6.55;1.27;;;;;;;;;;5020499;28;20145;-76
2022/08/08 14:24:55;;;;;;;6.63;1.10;;;;;;;;;;5027571;28;20060;-76
2022/08/08 14:27:26;;;;;;;2.78;1.20;;;;;;;;;;5028921;28;20124;-76
2022/08/08 14:30:18;;;;;;;6.22;1.20;;;;;;;;;;5021077;28;20050;-75
2022/08/08 14:32:45;;;;;;;3.08;0.88;;;;;;;;;;5026569;28;20451;-76
2022/08/08 14:35:20;;;;;;;1.67;1.00;;;;;;;;;;5020317;28;20054;-75
2022/08/08 14:37:49;;;;;;;4.57;1.42;;;;;;;;;;5021859;28;20052;-75
2022/08/08 14:40:30;;;;;;;5.30;1.10;;;;;;;;;;5021340;28;20851;-76
2022/08/08 14:42:58;;;;;;;4.40;1.13;;;;;;;;;;5039659;28;20046;-76
2022/08/08 14:45:29;;;;;;;3.92;1.02;;;;;;;;;;5020761;28;20088;-76
2022/08/08 14:48:18;;;;;;;2.25;1.00;;;;;;;;;;5023591;28;20187;-76
2022/08/08 14:51:04;;;;;;;4.00;1.55;;;;;;;;;;5022503;28;20077;-76
2022/08/08 14:53:37;;;;;;;3.67;1.17;;;;;;;;;;5022681;28;20062;-77
2022/08/08 14:56:23;;;;;;;1.42;0.90;;;;;;;;;;5020783;28;20355;-76
2022/08/08 14:58:51;;;;;;;3.60;1.20;;;;;;;;;;5021112;28;20046;-76
2022/08/08 15:01:28;;;;;;;3.03;1.30;;;;;;;;;;5021011;28;20109;-74
2022/08/08 15:04:07;;;;;;;2.10;1.00;;;;;;;;;;5021532;28;20056;-76
2022/08/08 15:06:36;;;;;;;3.30;1.20;;;;;;;;;;5020039;28;20054;-76
2022/08/08 15:09:08;;;;;;;5.27;1.30;;;;;;;;;;5025553;28;20042;-76
2022/08/08 15:11:37;;;;;;;2.10;1.30;;;;;;;;;;5021476;28;20881;-76
2022/08/08 15:14:19;;;;;;;2.28;1.05;;;;;;;;;;5026136;28;20172;-76
2022/08/08 15:16:53;;;;;;;1.88;1.00;;;;;;;;;;5027097;28;20145;-75
2022/08/08 15:19:23;;;;;;;2.90;1.13;;;;;;;;;;5021300;28;20834;-76
2022/08/08 15:21:56;;;;;;;2.88;1.30;;;;;;;;;;5019229;28;20046;-76
2022/08/08 15:24:24;;;;;;;4.18;1.20;;;;;;;;;;5022270;28;20088;-75
2022/08/08 15:26:59;;;;;;;3.80;1.10;;;;;;;;;;5032141;28;20050;-76
2022/08/08 15:29:46;;;;;;;4.13;1.20;;;;;;;;;;5023214;28;20054;-76
2022/08/08 15:32:14;;;;;;;2.85;1.20;;;;;;;;;;5020361;28;20074;-77
2022/08/08 15:34:49;;;;;;;3.25;1.23;;;;;;;;;;5021409;28;20050;-76
2022/08/08 15:37:16;;;;;;;4.20;1.17;;;;;;;;;;5019210;28;20104;-76
2022/08/08 15:39:45;;;;;;;2.40;1.10;;;;;;;;;;5030102;28;20169;-76
2022/08/08 15:42:14;;;;;;;5.05;1.33;;;;;;;;;;5018785;28;20054;-76
2022/08/08 15:45:01;;;;;;;2.38;1.05;;;;;;;;;;5028464;28;20161;-76
2022/08/08 15:47:29;;;;;;;2.78;1.10;;;;;;;;;;5025569;28;20053;-77
2022/08/08 15:49:58;;;;;;;2.88;1.20;;;;;;;;;;5027558;28;20085;-77
2022/08/08 15:52:25;;;;;;;2.13;1.10;;;;;;;;;;5022300;28;20046;-76